Milwaukee, Wisconsin
Traffic Map
Current Weather Conditions
Milwaukee, Wisconsin
Broken Clouds
Broken Clouds

Feels Like: -5°
Wind Chill: -5° Ceiling: 25000
Heat Index: Visibility: 10mi
Dew Point: -3° Wind: 18mph
Humidity: 75% Direction: 160° (SSE)
Pressure: 30.02in Gusts: 0mph
Raw Report DataKMKE 182152Z 16016KT 10SM FEW040 BKN250 01/M03 A3002 RMK AO2 SLP176 T00111028
Traffic Incident Summary
Active as of:
Severity:
Category:
InformationThere was an issue retrieving the traffic information for this location. Please try a different location or try again shortly.
Advertisements